createdAt,value
2022-09-12T03:45:16.608Z,2.60
2022-09-12T03:47:43.405Z,3.10
2022-09-12T03:50:10.646Z,2.50
2022-09-12T03:52:37.513Z,2.45
2022-09-12T03:55:04.943Z,3.00
2022-09-12T03:57:31.681Z,2.78
2022-09-12T03:59:58.406Z,3.08
2022-09-12T04:02:25.234Z,3.13
2022-09-12T04:04:51.903Z,3.47
2022-09-12T04:07:18.804Z,2.78
2022-09-12T04:09:45.652Z,3.22
2022-09-12T04:12:13.952Z,3.92
2022-09-12T04:14:40.852Z,3.30
2022-09-12T04:17:07.805Z,3.08
2022-09-12T04:19:34.555Z,3.35
2022-09-12T04:22:01.539Z,3.60
2022-09-12T04:24:28.266Z,3.40
2022-09-12T04:26:55.021Z,3.03
2022-09-12T04:29:21.959Z,2.67
2022-09-12T04:31:48.913Z,2.97
2022-09-12T04:34:15.826Z,2.78
2022-09-12T04:36:42.885Z,2.63
2022-09-12T04:39:11.482Z,4.35
2022-09-12T04:41:39.898Z,3.90
2022-09-12T04:44:16.118Z,4.00
2022-09-12T04:46:46.090Z,3.92
2022-09-12T04:49:16.163Z,5.25
2022-09-12T04:51:43.434Z,6.70
2022-09-12T04:54:16.765Z,6.70
2022-09-12T04:56:48.760Z,4.72
2022-09-12T04:59:17.628Z,4.78
2022-09-12T05:01:44.828Z,4.57
2022-09-12T05:04:13.064Z,4.75
2022-09-12T05:06:40.925Z,4.55
2022-09-12T05:09:11.283Z,3.80
2022-09-12T05:12:03.807Z,4.10
2022-09-12T05:14:27.239Z,4.88
2022-09-12T05:16:54.038Z,4.00
2022-09-12T05:19:20.741Z,3.95
2022-09-12T05:21:47.431Z,4.40
2022-09-12T05:24:14.235Z,4.85
2022-09-12T05:26:40.984Z,4.55
2022-09-12T05:29:07.748Z,3.88
2022-09-12T05:31:34.954Z,4.00
2022-09-12T05:34:04.601Z,3.58
2022-09-12T05:36:31.791Z,5.13
2022-09-12T05:39:00.057Z,3.80
2022-09-12T05:41:32.169Z,4.30
2022-09-12T05:44:01.495Z,4.00
2022-09-12T05:46:31.668Z,4.45
2022-09-12T05:49:08.687Z,4.18
2022-09-12T05:51:39.026Z,3.90
2022-09-12T05:54:08.086Z,4.22
2022-09-12T05:56:42.032Z,3.53
2022-09-12T05:59:13.878Z,5.15
2022-09-12T06:01:40.892Z,5.15
2022-09-12T06:04:08.126Z,4.53
2022-09-12T06:06:42.501Z,4.28
2022-09-12T06:09:10.055Z,5.03
2022-09-12T06:11:40.706Z,4.10
2022-09-12T06:14:09.875Z,3.85
2022-09-12T06:16:37.741Z,3.80
2022-09-12T06:19:07.421Z,4.40
2022-09-12T06:21:35.421Z,3.63
2022-09-12T06:24:02.647Z,3.38
2022-09-12T06:26:29.892Z,3.28
2022-09-12T06:28:58.229Z,3.92
2022-09-12T06:31:31.492Z,3.22
2022-09-12T06:34:07.070Z,3.55
2022-09-12T06:36:38.059Z,3.78
2022-09-12T06:39:07.895Z,3.50
2022-09-12T06:41:34.880Z,3.35
2022-09-12T06:44:02.128Z,3.17
2022-09-12T06:46:30.894Z,3.53
2022-09-12T06:48:59.739Z,3.85
2022-09-12T06:51:27.526Z,4.28
2022-09-12T06:53:57.962Z,3.70
2022-09-12T06:56:27.553Z,3.70
2022-09-12T06:58:56.968Z,3.90
2022-09-12T07:01:30.013Z,3.90
2022-09-12T07:04:02.522Z,3.92
2022-09-12T07:06:32.162Z,3.70
2022-09-12T07:09:00.995Z,3.90
2022-09-12T07:11:33.430Z,3.33
2022-09-12T07:14:02.223Z,4.20
2022-09-12T07:16:30.373Z,3.97
2022-09-12T07:18:59.664Z,3.50
2022-09-12T07:21:27.166Z,4.05
2022-09-12T07:23:58.112Z,3.88
2022-09-12T07:26:27.282Z,3.92
2022-09-12T07:29:07.860Z,4.07
2022-09-12T07:31:42.746Z,3.53
2022-09-12T07:34:09.830Z,3.47
2022-09-12T07:36:37.164Z,3.15
2022-09-12T07:39:03.947Z,3.35
2022-09-12T07:41:33.913Z,4.00
2022-09-12T07:44:03.027Z,3.25
2022-09-12T07:46:31.580Z,3.60
2022-09-12T07:49:00.035Z,3.45
2022-09-12T07:51:28.628Z,3.50
2022-09-12T07:53:56.476Z,3.40
2022-09-12T07:56:29.430Z,3.40
2022-09-12T07:58:57.285Z,2.70
2022-09-12T08:01:24.565Z,2.70
2022-09-12T08:03:56.204Z,2.72
2022-09-12T08:06:24.640Z,2.70
2022-09-12T08:08:52.658Z,2.55
2022-09-12T08:11:21.922Z,2.50
2022-09-12T08:13:54.788Z,2.67
2022-09-12T08:16:24.263Z,2.22
2022-09-12T08:18:51.279Z,2.13
2022-09-12T08:21:23.263Z,1.95
2022-09-12T08:23:54.963Z,1.80
2022-09-12T08:26:21.694Z,1.95
2022-09-12T08:28:49.167Z,1.65
2022-09-12T08:31:18.353Z,1.95
2022-09-12T08:33:45.543Z,2.08
2022-09-12T08:36:24.266Z,1.77
2022-09-12T08:38:59.300Z,2.20
2022-09-12T08:41:35.603Z,2.13
2022-09-12T08:44:39.913Z,2.30
2022-09-12T08:47:25.092Z,1.88
2022-09-12T08:50:03.570Z,2.35
2022-09-12T08:52:34.702Z,1.48
2022-09-12T08:55:02.851Z,1.70
2022-09-12T08:57:29.654Z,2.00
2022-09-12T08:59:56.867Z,1.40
2022-09-12T09:02:55.706Z,1.60
2022-09-12T09:05:51.255Z,1.67
2022-09-12T09:08:29.762Z,1.75
2022-09-12T09:10:56.419Z,1.90
2022-09-12T09:13:52.274Z,2.10
2022-09-12T09:16:26.994Z,1.58
2022-09-12T09:18:57.214Z,1.80
2022-09-12T09:21:42.957Z,2.00
2022-09-12T09:24:19.398Z,1.67
2022-09-12T09:27:00.778Z,1.80
2022-09-12T09:29:33.902Z,1.70
2022-09-12T09:32:04.389Z,1.95
2022-09-12T09:34:31.672Z,1.58
2022-09-12T09:37:15.219Z,1.77
2022-09-12T09:39:42.473Z,1.98
2022-09-12T09:42:34.451Z,1.75
2022-09-12T09:45:04.631Z,1.70
2022-09-12T09:47:31.415Z,1.38
2022-09-12T09:49:58.130Z,1.90
2022-09-12T09:52:29.539Z,1.42
2022-09-12T09:55:00.143Z,1.43
2022-09-12T09:57:36.330Z,1.92
2022-09-12T10:00:21.872Z,1.23
2022-09-12T10:03:29.451Z,1.23
2022-09-12T10:06:01.830Z,1.70
2022-09-12T10:08:35.232Z,1.50
2022-09-12T10:11:06.841Z,1.27
2022-09-12T10:13:37.922Z,1.25
2022-09-12T10:16:20.138Z,1.25
2022-09-12T10:19:01.586Z,1.40
2022-09-12T10:21:50.446Z,1.30
2022-09-12T10:24:20.251Z,1.50
2022-09-12T10:26:56.957Z,1.48
2022-09-12T10:29:30.508Z,1.63
2022-09-12T10:32:04.607Z,1.40
2022-09-12T10:34:40.801Z,1.20
2022-09-12T10:37:24.047Z,1.70
2022-09-12T10:39:57.194Z,1.58
2022-09-12T10:42:55.844Z,1.70
2022-09-12T10:45:28.967Z,1.52
2022-09-12T10:47:59.108Z,1.73
2022-09-12T10:50:31.018Z,3.78
2022-09-12T10:53:13.614Z,1.58
2022-09-12T10:55:46.703Z,1.95
2022-09-12T10:58:39.582Z,1.30
2022-09-12T11:01:36.799Z,1.52
2022-09-12T11:04:21.507Z,1.60
2022-09-12T11:07:14.512Z,1.60
2022-09-12T11:10:02.952Z,1.60
2022-09-12T11:12:41.390Z,1.38
2022-09-12T11:15:17.023Z,1.70
2022-09-12T11:17:55.320Z,1.67
2022-09-12T11:20:31.998Z,1.67
2022-09-12T11:23:14.516Z,1.70
2022-09-12T11:25:57.096Z,1.63
2022-09-12T11:28:52.843Z,2.10
2022-09-12T11:31:55.610Z,1.88
2022-09-12T11:34:34.558Z,1.80
2022-09-12T11:37:28.358Z,1.67
2022-09-12T11:40:00.357Z,2.13
2022-09-12T11:42:32.786Z,1.70
2022-09-12T11:45:12.788Z,1.88
2022-09-12T11:47:41.659Z,1.40
2022-09-12T11:50:23.319Z,1.75
2022-09-12T11:52:51.247Z,1.55
2022-09-12T11:55:22.706Z,1.60
2022-09-12T11:57:58.556Z,1.60
2022-09-12T12:00:26.625Z,1.48
2022-09-12T12:03:20.565Z,1.33
2022-09-12T12:06:06.961Z,1.52
2022-09-12T12:08:40.358Z,1.58
2022-09-12T12:11:08.750Z,1.38
2022-09-12T12:13:45.834Z,1.38
2022-09-12T12:16:31.345Z,4.20
2022-09-12T12:19:06.404Z,1.23
2022-09-12T12:21:40.073Z,1.95
2022-09-12T12:24:09.531Z,1.70
2022-09-12T12:26:38.941Z,1.60
2022-09-12T12:29:17.953Z,2.00
2022-09-12T12:32:07.997Z,1.60
2022-09-12T12:34:35.897Z,1.95
2022-09-12T12:37:25.355Z,1.70
2022-09-12T12:40:01.127Z,1.80
2022-09-12T12:42:36.714Z,1.45
2022-09-12T12:45:09.426Z,1.30
2022-09-12T12:47:36.122Z,1.63
2022-09-12T12:50:05.129Z,1.45
2022-09-12T12:52:42.422Z,1.25
2022-09-12T12:55:22.579Z,1.25
2022-09-12T12:57:51.721Z,1.20
2022-09-12T13:00:24.273Z,1.50
2022-09-12T13:02:59.658Z,1.50
2022-09-12T13:05:28.383Z,1.33
2022-09-12T13:08:10.385Z,2.67
2022-09-12T13:10:37.985Z,1.45
2022-09-12T13:13:08.646Z,1.35
2022-09-12T13:15:38.240Z,1.52
2022-09-12T13:18:31.275Z,1.52
2022-09-12T13:21:10.183Z,1.60
2022-09-12T13:23:36.984Z,1.88
2022-09-12T13:26:10.119Z,1.58
2022-09-12T13:28:36.913Z,1.17
2022-09-12T13:31:12.191Z,1.55
2022-09-12T13:33:45.310Z,1.33
2022-09-12T13:36:35.400Z,1.23
2022-09-12T13:39:19.719Z,1.38
2022-09-12T13:42:19.989Z,1.55
2022-09-12T13:45:21.315Z,2.10
2022-09-12T13:47:57.880Z,1.92
2022-09-12T13:50:28.397Z,1.60
2022-09-12T13:52:58.213Z,1.70
2022-09-12T13:55:39.186Z,1.85
2022-09-12T13:58:15.697Z,1.40
2022-09-12T14:00:42.502Z,1.25
2022-09-12T14:03:48.714Z,1.50
2022-09-12T14:06:16.538Z,1.50
2022-09-12T14:08:44.402Z,1.40
2022-09-12T14:11:12.288Z,1.10
2022-09-12T14:13:39.341Z,1.20
2022-09-12T14:16:09.845Z,1.30
2022-09-12T14:18:38.692Z,1.92
2022-09-12T14:21:11.271Z,1.10
2022-09-12T14:23:43.988Z,1.65
2022-09-12T14:26:13.513Z,1.40
2022-09-12T14:28:42.413Z,1.20
2022-09-12T14:31:15.762Z,1.83
2022-09-12T14:33:57.394Z,1.50
2022-09-12T14:36:48.637Z,1.40
2022-09-12T14:39:37.692Z,1.55
2022-09-12T14:42:11.489Z,1.30
2022-09-12T14:44:39.393Z,1.50
2022-09-12T14:47:22.169Z,1.33
2022-09-12T14:49:51.671Z,1.10
2022-09-12T14:52:21.403Z,1.80
2022-09-12T14:55:02.757Z,1.70
2022-09-12T14:57:39.399Z,1.35
2022-09-12T15:00:24.400Z,1.40
2022-09-12T15:02:52.906Z,1.65
2022-09-12T15:05:26.446Z,1.23
2022-09-12T15:07:58.579Z,1.20
2022-09-12T15:10:36.380Z,1.40
2022-09-12T15:13:05.904Z,1.40
2022-09-12T15:15:32.861Z,1.60
2022-09-12T15:18:02.352Z,1.30
2022-09-12T15:20:33.870Z,1.20
2022-09-12T15:23:00.564Z,1.75
2022-09-12T15:25:27.245Z,1.15
2022-09-12T15:27:55.970Z,2.63
2022-09-12T15:30:22.743Z,1.45
2022-09-12T15:32:49.496Z,1.50
2022-09-12T15:35:23.899Z,1.60
2022-09-12T15:37:51.138Z,1.30
2022-09-12T15:40:18.842Z,0.93
2022-09-12T15:42:45.652Z,1.00
2022-09-12T15:45:31.669Z,1.25
2022-09-12T15:47:58.790Z,1.10
2022-09-12T15:50:25.501Z,0.93
2022-09-12T15:52:52.338Z,0.95
2022-09-12T15:55:22.401Z,1.00
2022-09-12T15:57:49.124Z,0.90
2022-09-12T16:00:17.770Z,0.80
2022-09-12T16:02:46.157Z,0.90
2022-09-12T16:05:19.542Z,1.10
2022-09-12T16:07:46.199Z,1.23
2022-09-12T16:10:23.948Z,1.15
2022-09-12T16:12:51.408Z,0.93
2022-09-12T16:15:24.410Z,1.55
2022-09-12T16:20:19.272Z,0.93
2022-09-12T16:22:46.044Z,1.20
2022-09-12T16:25:12.837Z,1.08
2022-09-12T16:27:40.462Z,1.20
2022-09-12T16:30:08.478Z,1.10
2022-09-12T16:32:35.579Z,1.15
2022-09-12T16:35:02.311Z,1.23
2022-09-12T16:37:29.027Z,1.20
2022-09-12T16:39:55.946Z,1.48
2022-09-12T16:42:22.925Z,1.20
2022-09-12T16:44:49.648Z,1.30
2022-09-12T16:47:16.383Z,1.23
2022-09-12T16:49:43.204Z,1.30
2022-09-12T16:52:10.157Z,1.55
2022-09-12T16:54:37.009Z,1.38
2022-09-12T16:57:05.266Z,1.63
2022-09-12T16:59:32.453Z,1.95
2022-09-12T17:01:59.214Z,1.00
2022-09-12T17:04:25.961Z,1.38
2022-09-12T17:06:52.709Z,1.60
2022-09-12T17:09:19.503Z,0.80
2022-09-12T17:11:47.764Z,1.08
2022-09-12T17:14:14.496Z,1.00
2022-09-12T17:16:46.885Z,1.05
2022-09-12T17:19:29.636Z,1.30
2022-09-12T17:21:57.301Z,1.08
2022-09-12T17:24:24.209Z,1.20
2022-09-12T17:26:51.073Z,1.20
2022-09-12T17:29:18.052Z,1.15
2022-09-12T17:31:45.389Z,1.00
2022-09-12T17:34:14.464Z,0.77
2022-09-12T17:36:45.393Z,1.00
2022-09-12T17:39:13.533Z,1.15
2022-09-12T17:41:42.596Z,1.20
2022-09-12T17:44:11.919Z,2.25
2022-09-12T17:46:39.777Z,3.55
2022-09-12T17:49:12.908Z,0.80
2022-09-12T17:51:40.375Z,1.27
2022-09-12T17:54:12.937Z,1.65
2022-09-12T17:56:40.273Z,0.93
2022-09-12T17:59:08.296Z,1.10
2022-09-12T18:01:54.047Z,1.02
2022-09-12T18:04:20.918Z,0.70
2022-09-12T18:06:48.828Z,1.15
2022-09-12T18:09:19.338Z,1.20
2022-09-12T18:11:48.052Z,1.17
2022-09-12T18:14:15.527Z,1.00
2022-09-12T18:16:43.100Z,1.02
2022-09-12T18:19:11.159Z,1.30
2022-09-12T18:21:38.376Z,1.30
2022-09-12T18:24:05.498Z,1.20
2022-09-12T18:26:33.066Z,1.17
2022-09-12T18:28:59.721Z,1.15
2022-09-12T18:31:29.632Z,1.20
2022-09-12T18:33:57.624Z,1.17
2022-09-12T18:36:24.426Z,3.22
2022-09-12T18:38:51.250Z,3.05
2022-09-12T18:41:22.858Z,1.77
2022-09-12T18:43:54.464Z,2.75
2022-09-12T18:46:21.269Z,1.70
2022-09-12T18:48:48.028Z,1.60
2022-09-12T18:51:22.890Z,1.77
2022-09-12T18:53:54.805Z,2.08
2022-09-12T18:56:23.093Z,3.47
2022-09-12T18:58:52.325Z,5.57
2022-09-12T19:01:24.482Z,1.65
2022-09-12T19:03:52.244Z,1.60
2022-09-12T19:06:21.820Z,1.80
2022-09-12T19:08:50.176Z,6.53
2022-09-12T19:11:17.305Z,3.58
2022-09-12T19:13:45.508Z,4.47
2022-09-12T19:16:15.633Z,1.80
2022-09-12T19:18:42.689Z,2.97
2022-09-12T19:21:15.126Z,2.00
2022-09-12T19:23:42.234Z,3.80
2022-09-12T19:26:11.726Z,3.90
2022-09-12T19:28:39.014Z,3.80
2022-09-12T19:31:11.885Z,5.60
2022-09-12T19:33:39.045Z,5.90
2022-09-12T19:36:27.286Z,4.95
2022-09-12T19:38:55.350Z,2.95
2022-09-12T19:41:22.013Z,2.53
2022-09-12T19:43:48.670Z,2.25
2022-09-12T19:46:20.794Z,1.90
2022-09-12T19:48:48.058Z,1.85
2022-09-12T19:51:15.418Z,1.88
2022-09-12T19:53:43.086Z,1.60
2022-09-12T19:56:12.471Z,2.67
2022-09-12T19:58:41.612Z,3.97
2022-09-12T20:01:13.770Z,2.58
2022-09-12T20:03:41.527Z,2.10
2022-09-12T20:06:11.133Z,1.88
2022-09-12T20:08:39.997Z,1.70
2022-09-12T20:11:07.702Z,1.77
2022-09-12T20:13:34.635Z,1.98
2022-09-12T20:16:20.369Z,1.83
2022-09-12T20:18:49.374Z,1.65
2022-09-12T20:21:19.714Z,2.05
2022-09-12T20:23:46.669Z,1.77
2022-09-12T20:26:13.732Z,1.35
2022-09-12T20:28:41.068Z,1.85
2022-09-12T20:31:11.724Z,1.85
2022-09-12T20:33:38.729Z,1.70
2022-09-12T20:36:15.529Z,1.58
2022-09-12T20:38:47.025Z,1.52
2022-09-12T20:41:13.706Z,1.75
2022-09-12T20:43:40.849Z,2.10
2022-09-12T20:46:09.785Z,1.95
2022-09-12T20:48:37.682Z,1.77
2022-09-12T20:51:05.061Z,2.10
2022-09-12T20:53:34.825Z,1.80
2022-09-12T20:56:02.620Z,2.00
2022-09-12T20:58:29.368Z,1.90
2022-09-12T21:00:56.078Z,1.90
2022-09-12T21:03:22.989Z,1.65
2022-09-12T21:05:49.636Z,1.70
2022-09-12T21:08:16.551Z,1.70
2022-09-12T21:10:44.661Z,1.80
2022-09-12T21:13:12.601Z,2.00
2022-09-12T21:15:40.861Z,2.05
2022-09-12T21:18:07.934Z,1.98
2022-09-12T21:20:34.768Z,2.10
2022-09-12T21:23:01.558Z,1.80
2022-09-12T21:25:29.103Z,2.10
2022-09-12T21:27:56.042Z,2.20
2022-09-12T21:30:22.943Z,2.08
2022-09-12T21:32:49.660Z,1.83
2022-09-12T21:35:16.465Z,2.38
2022-09-12T21:37:43.126Z,2.20
2022-09-12T21:40:10.188Z,2.15
2022-09-12T21:42:37.204Z,1.80
2022-09-12T21:45:04.093Z,2.33
2022-09-12T21:47:30.934Z,2.15
2022-09-12T21:49:58.399Z,1.95
2022-09-12T21:52:25.129Z,2.00
2022-09-12T21:54:51.846Z,2.20
2022-09-12T21:57:18.551Z,1.88
2022-09-12T21:59:45.234Z,1.73
2022-09-12T22:02:12.376Z,2.20
2022-09-12T22:04:39.346Z,2.00
2022-09-12T22:07:06.302Z,2.42
2022-09-12T22:09:34.264Z,1.88
2022-09-12T22:12:02.340Z,2.00
2022-09-12T22:14:29.427Z,1.88
2022-09-12T22:16:56.753Z,2.10
2022-09-12T22:19:23.507Z,2.00
2022-09-12T22:22:08.798Z,1.98
2022-09-12T22:24:35.446Z,1.85
2022-09-12T22:27:04.274Z,2.10
2022-09-12T22:29:30.978Z,1.90
2022-09-12T22:31:59.133Z,1.77
2022-09-12T22:34:27.002Z,2.13
2022-09-12T22:36:53.848Z,2.13
2022-09-12T22:39:20.517Z,1.95
2022-09-12T22:41:47.170Z,1.92
2022-09-12T22:44:14.270Z,1.95
2022-09-12T22:46:41.012Z,1.80
2022-09-12T22:49:07.862Z,1.70
2022-09-12T22:51:34.650Z,2.03
2022-09-12T22:54:01.542Z,2.05
2022-09-12T22:56:28.297Z,2.00
2022-09-12T22:58:55.129Z,2.20
